createdAt,value
2019-05-03T00:02:28.795Z,10.79
2019-05-03T00:05:09.706Z,10.80
2019-05-03T00:07:42.096Z,10.75
2019-05-03T00:10:14.006Z,10.74
2019-05-03T00:12:45.871Z,10.82
2019-05-03T00:15:24.269Z,10.83
2019-05-03T00:17:56.163Z,10.80
2019-05-03T00:20:28.154Z,10.83
2019-05-03T00:23:00.013Z,10.87
2019-05-03T00:25:32.659Z,10.86
2019-05-03T00:28:04.647Z,10.84
2019-05-03T00:30:36.563Z,10.64
2019-05-03T00:33:08.355Z,10.36
2019-05-03T00:36:05.028Z,10.10
2019-05-03T00:38:37.118Z,9.85
2019-05-03T00:41:08.973Z,9.77
2019-05-03T00:43:42.349Z,9.81
2019-05-03T00:46:14.354Z,9.68
2019-05-03T00:48:46.224Z,9.69
2019-05-03T00:51:18.074Z,9.62
2019-05-03T00:53:49.930Z,9.57
2019-05-03T00:56:21.792Z,9.41
2019-05-03T00:58:57.449Z,9.37
2019-05-03T01:01:29.322Z,9.20
2019-05-03T01:04:02.357Z,9.21
2019-05-03T01:06:34.368Z,9.21
2019-05-03T01:09:11.749Z,9.17
2019-05-03T01:11:43.358Z,9.18
2019-05-03T01:14:15.205Z,9.17
2019-05-03T01:16:47.059Z,9.10
2019-05-03T01:19:19.016Z,9.13
2019-05-03T01:21:51.546Z,9.08
2019-05-03T01:24:23.496Z,9.11
2019-05-03T01:26:55.359Z,9.20
2019-05-03T01:29:27.219Z,9.32
2019-05-03T01:32:02.126Z,9.34
2019-05-03T01:34:34.026Z,9.38
2019-05-03T01:37:05.890Z,9.54
2019-05-03T01:39:37.752Z,9.60
2019-05-03T01:42:09.605Z,9.60
2019-05-03T01:44:42.717Z,9.71
2019-05-03T01:47:21.844Z,9.65
2019-05-03T01:50:07.171Z,9.64
2019-05-03T01:52:41.999Z,9.43
2019-05-03T01:55:16.007Z,9.34
2019-05-03T01:57:47.970Z,9.35
2019-05-03T02:00:25.226Z,9.27
2019-05-03T02:03:12.378Z,9.20
2019-05-03T02:05:47.005Z,9.20
2019-05-03T02:08:18.850Z,9.26
2019-05-03T02:10:51.743Z,9.35
2019-05-03T02:13:23.765Z,9.37
2019-05-03T02:15:55.649Z,9.44
2019-05-03T02:18:27.436Z,9.33
2019-05-03T02:21:01.671Z,9.34
2019-05-03T02:23:33.922Z,9.23
2019-05-03T02:26:07.102Z,9.19
2019-05-03T02:28:38.956Z,9.19
2019-05-03T02:31:13.417Z,9.25
2019-05-03T02:33:44.363Z,9.32
2019-05-03T02:36:16.221Z,9.27
2019-05-03T02:38:48.017Z,9.13
2019-05-03T02:41:22.524Z,9.11
2019-05-03T02:43:56.091Z,8.93
2019-05-03T02:46:45.274Z,8.97
2019-05-03T02:49:25.748Z,8.92
2019-05-03T02:51:58.824Z,8.73
2019-05-03T02:54:30.610Z,8.71
2019-05-03T02:57:02.398Z,8.70
2019-05-03T02:59:35.294Z,8.74
2019-05-03T03:02:07.143Z,8.70
2019-05-03T03:04:38.998Z,8.67
2019-05-03T03:07:10.900Z,8.68
2019-05-03T03:09:45.132Z,8.67
2019-05-03T03:12:16.816Z,8.65
2019-05-03T03:14:48.921Z,8.71
2019-05-03T03:17:24.903Z,8.71
2019-05-03T03:19:56.773Z,8.73
2019-05-03T03:22:30.222Z,8.74
2019-05-03T03:25:05.392Z,8.71
2019-05-03T03:27:40.241Z,8.76
2019-05-03T03:30:31.369Z,8.81
2019-05-03T03:33:08.648Z,8.76
2019-05-03T03:35:40.741Z,8.76
2019-05-03T03:38:15.346Z,8.81
2019-05-03T03:40:46.347Z,8.80
2019-05-03T03:43:19.672Z,8.75
2019-05-03T03:45:51.919Z,8.71
2019-05-03T03:48:26.589Z,8.63
2019-05-03T03:50:57.829Z,8.61
2019-05-03T03:53:31.247Z,8.62
2019-05-03T03:56:05.616Z,8.66
2019-05-03T03:58:38.316Z,8.63
2019-05-03T04:01:10.172Z,8.67
2019-05-03T04:03:45.775Z,8.66
2019-05-03T04:06:16.844Z,8.56
2019-05-03T04:08:48.690Z,8.53
2019-05-03T04:11:20.544Z,8.52
2019-05-03T04:13:52.396Z,8.44
2019-05-03T04:16:46.396Z,8.49
2019-05-03T04:19:25.128Z,8.41
2019-05-03T04:21:56.614Z,8.37
2019-05-03T04:24:29.246Z,8.31
2019-05-03T04:27:18.729Z,8.30
2019-05-03T04:29:40.938Z,8.38
2019-05-03T04:32:15.410Z,8.42
2019-05-03T04:34:46.275Z,8.44
2019-05-03T04:37:18.157Z,8.45
2019-05-03T04:39:49.941Z,8.50
2019-05-03T04:42:21.798Z,8.44
2019-05-03T04:44:56.301Z,8.46
2019-05-03T04:47:27.191Z,8.52
2019-05-03T04:49:59.045Z,8.46
2019-05-03T04:52:30.917Z,8.50
2019-05-03T04:55:02.769Z,8.44
2019-05-03T04:57:40.484Z,8.49
2019-05-03T05:00:11.452Z,8.46
2019-05-03T05:02:45.743Z,8.50
2019-05-03T05:05:17.191Z,8.55
2019-05-03T05:07:48.983Z,8.52
2019-05-03T05:10:20.840Z,8.51
2019-05-03T05:12:54.964Z,8.52
2019-05-03T05:15:26.751Z,8.56
2019-05-03T05:18:26.181Z,8.49
2019-05-03T05:21:19.268Z,8.52
2019-05-03T05:23:59.482Z,8.45
2019-05-03T05:26:41.225Z,8.51
2019-05-03T05:29:14.683Z,8.53
2019-05-03T05:31:46.557Z,8.38
2019-05-03T05:34:18.359Z,8.39
2019-05-03T05:36:50.196Z,8.45
2019-05-03T05:39:22.009Z,8.46
2019-05-03T05:41:55.431Z,8.45
2019-05-03T05:44:27.364Z,8.50
2019-05-03T05:47:16.648Z,8.45
2019-05-03T05:49:55.165Z,8.51
2019-05-03T05:52:27.128Z,8.61
2019-05-03T05:55:35.831Z,8.50
2019-05-03T05:58:12.386Z,8.53
2019-05-03T06:00:59.146Z,8.53
2019-05-03T06:03:30.925Z,8.37
2019-05-03T06:06:05.451Z,8.30
2019-05-03T06:09:11.172Z,8.40
2019-05-03T06:11:47.897Z,8.46
2019-05-03T06:14:29.426Z,8.49
2019-05-03T06:17:06.485Z,8.36
2019-05-03T06:19:42.243Z,8.40
2019-05-03T06:22:30.644Z,8.29
2019-05-03T06:25:11.651Z,8.11
2019-05-03T06:27:44.964Z,8.08
2019-05-03T06:30:41.620Z,8.26
2019-05-03T06:33:14.370Z,8.36
2019-05-03T06:35:46.236Z,8.48
2019-05-03T06:38:18.086Z,8.45
2019-05-03T06:40:50.589Z,8.56
2019-05-03T06:43:24.283Z,8.58
2019-05-03T06:45:57.662Z,8.47
2019-05-03T06:48:31.970Z,8.46
2019-05-03T06:51:08.755Z,8.45
2019-05-03T06:53:37.210Z,8.40
2019-05-03T06:56:09.068Z,8.32
2019-05-03T06:58:41.187Z,8.38
2019-05-03T07:01:20.755Z,8.33
2019-05-03T07:04:15.261Z,8.31
2019-05-03T07:07:05.313Z,8.45
2019-05-03T07:09:51.304Z,8.29
2019-05-03T07:12:24.908Z,8.25
2019-05-03T07:14:57.924Z,8.44
2019-05-03T07:17:30.069Z,8.44
2019-05-03T07:20:04.560Z,8.35
2019-05-03T07:22:37.295Z,8.37
2019-05-03T07:25:09.213Z,8.60
2019-05-03T07:27:41.088Z,8.76
2019-05-03T07:30:13.059Z,8.98
2019-05-03T07:32:46.768Z,9.03
2019-05-03T07:35:18.632Z,8.88
2019-05-03T07:37:50.497Z,9.13
2019-05-03T07:40:22.494Z,9.20
2019-05-03T07:42:55.404Z,9.10
2019-05-03T07:45:27.512Z,9.15
2019-05-03T07:48:00.369Z,9.02
2019-05-03T07:50:33.265Z,9.13
2019-05-03T07:53:05.817Z,9.09
2019-05-03T07:55:55.060Z,9.13
2019-05-03T07:58:27.738Z,9.09
2019-05-03T08:01:08.800Z,9.18
2019-05-03T08:03:35.543Z,9.03
2019-05-03T08:06:07.636Z,9.00
2019-05-03T08:08:39.628Z,9.00
2019-05-03T08:11:11.506Z,9.17
2019-05-03T08:13:44.630Z,9.25
2019-05-03T08:16:16.544Z,9.35
2019-05-03T08:18:48.424Z,9.46
2019-05-03T08:21:21.644Z,9.28
2019-05-03T08:23:55.491Z,9.49
2019-05-03T08:26:27.239Z,9.53
2019-05-03T08:29:13.359Z,9.65
2019-05-03T08:32:01.422Z,9.85
2019-05-03T08:34:50.205Z,9.91
2019-05-03T08:37:27.972Z,10.08
2019-05-03T08:39:59.666Z,10.20
2019-05-03T08:42:31.570Z,10.18
2019-05-03T08:45:04.558Z,10.29
2019-05-03T08:47:37.061Z,10.45
2019-05-03T08:50:10.354Z,10.43
2019-05-03T08:52:42.657Z,10.79
2019-05-03T08:55:16.029Z,10.81
2019-05-03T08:57:49.010Z,10.68
2019-05-03T09:00:24.796Z,10.56
2019-05-03T09:02:56.237Z,10.83
2019-05-03T09:05:28.174Z,10.79
2019-05-03T09:08:00.078Z,11.10
2019-05-03T09:10:50.891Z,11.04
2019-05-03T09:13:24.970Z,10.79
2019-05-03T09:15:56.674Z,10.53
2019-05-03T09:18:28.623Z,10.41
2019-05-03T09:21:00.913Z,10.32
2019-05-03T09:23:32.914Z,10.27
2019-05-03T09:26:05.324Z,10.06
2019-05-03T09:28:38.062Z,10.00
2019-05-03T09:31:09.961Z,10.10
2019-05-03T09:33:41.872Z,10.42
2019-05-03T09:36:14.696Z,10.91
2019-05-03T09:38:46.791Z,11.32
2019-05-03T09:41:18.606Z,11.52
2019-05-03T09:43:50.578Z,11.83
2019-05-03T09:46:24.287Z,11.84
2019-05-03T09:49:09.448Z,11.46
2019-05-03T09:51:29.889Z,11.83
2019-05-03T09:54:08.592Z,12.18
2019-05-03T09:56:59.629Z,12.21
2019-05-03T09:59:32.708Z,12.16
2019-05-03T10:02:05.103Z,12.47
2019-05-03T10:04:37.113Z,11.88
2019-05-03T10:07:09.026Z,11.17
2019-05-03T10:09:40.918Z,11.24
2019-05-03T10:12:18.350Z,11.85
2019-05-03T10:14:51.118Z,11.68
2019-05-03T10:17:45.972Z,11.41
2019-05-03T10:20:19.033Z,11.22
2019-05-03T10:22:51.659Z,11.10
2019-05-03T10:25:24.784Z,11.47
2019-05-03T10:27:57.016Z,12.00
2019-05-03T10:30:29.031Z,12.40
2019-05-03T10:33:15.823Z,12.79
2019-05-03T10:35:47.743Z,13.01
2019-05-03T10:38:20.654Z,12.69
2019-05-03T10:40:54.875Z,12.22
2019-05-03T10:43:26.147Z,12.04
2019-05-03T10:45:58.023Z,11.81
2019-05-03T10:48:29.937Z,12.67
2019-05-03T10:51:01.984Z,13.37
2019-05-03T10:53:42.945Z,12.93
2019-05-03T10:56:22.818Z,12.57
2019-05-03T10:58:59.888Z,12.73
2019-05-03T11:02:01.684Z,12.97
2019-05-03T11:04:35.634Z,12.87
2019-05-03T11:07:07.907Z,13.32
2019-05-03T11:09:48.551Z,14.01
2019-05-03T11:12:15.220Z,14.02
2019-05-03T11:14:47.165Z,14.22
2019-05-03T11:17:19.543Z,14.67
2019-05-03T11:19:51.621Z,14.67
2019-05-03T11:22:25.250Z,15.21
2019-05-03T11:24:57.559Z,14.95
2019-05-03T11:27:38.571Z,15.03
2019-05-03T11:30:16.253Z,14.58
2019-05-03T11:32:58.648Z,14.19
2019-05-03T11:35:56.618Z,13.85
2019-05-03T11:38:35.129Z,13.07
2019-05-03T11:41:08.052Z,13.01
2019-05-03T11:43:40.167Z,13.01
2019-05-03T11:46:12.029Z,12.79
2019-05-03T11:48:45.505Z,12.77
2019-05-03T11:51:17.552Z,12.64
2019-05-03T11:53:50.418Z,12.55
2019-05-03T11:56:22.432Z,12.66
2019-05-03T11:58:54.997Z,12.65
2019-05-03T12:01:37.819Z,12.58
2019-05-03T12:04:09.788Z,12.51
2019-05-03T12:06:41.660Z,12.47
2019-05-03T12:09:15.507Z,12.36
2019-05-03T12:11:47.409Z,12.37
2019-05-03T12:14:19.359Z,12.49
2019-05-03T12:17:18.486Z,12.48
2019-05-03T12:19:41.744Z,12.55
2019-05-03T12:22:16.645Z,13.00
2019-05-03T12:24:48.583Z,13.16
2019-05-03T12:27:20.866Z,13.25
2019-05-03T12:29:52.965Z,13.28
2019-05-03T12:32:25.178Z,13.21
2019-05-03T12:34:57.123Z,13.12
2019-05-03T12:37:29.037Z,13.18
2019-05-03T12:40:00.890Z,13.26
2019-05-03T12:42:35.447Z,13.22
2019-05-03T12:45:07.356Z,13.08
2019-05-03T12:47:41.199Z,13.15
2019-05-03T12:50:15.697Z,13.20
2019-05-03T12:52:50.364Z,13.21
2019-05-03T12:55:22.036Z,13.28
2019-05-03T12:57:55.515Z,13.22
2019-05-03T13:00:39.093Z,13.37
2019-05-03T13:03:15.261Z,13.40
2019-05-03T13:05:47.383Z,13.63
2019-05-03T13:08:39.874Z,13.70
2019-05-03T13:11:12.156Z,13.54
2019-05-03T13:13:45.206Z,13.55
2019-05-03T13:16:19.972Z,13.48
2019-05-03T13:18:55.151Z,13.38
2019-05-03T13:21:27.424Z,13.50
2019-05-03T13:23:59.281Z,13.63
2019-05-03T13:26:31.152Z,13.51
2019-05-03T13:29:03.095Z,13.54
2019-05-03T13:31:35.279Z,13.59
2019-05-03T13:34:07.143Z,13.59
2019-05-03T13:36:38.953Z,13.26
2019-05-03T13:39:14.716Z,13.30
2019-05-03T13:41:45.735Z,13.55
2019-05-03T13:44:17.694Z,13.55
2019-05-03T13:46:49.540Z,13.71
2019-05-03T13:49:21.335Z,13.57
2019-05-03T13:51:54.858Z,13.57
2019-05-03T13:54:26.671Z,13.41
2019-05-03T13:56:58.541Z,13.41
2019-05-03T13:59:30.382Z,14.03
2019-05-03T14:02:12.561Z,14.03
2019-05-03T14:04:49.149Z,14.23
2019-05-03T14:07:12.442Z,14.35
2019-05-03T14:09:45.268Z,14.35
2019-05-03T14:12:17.315Z,14.26
2019-05-03T14:14:56.402Z,14.37
2019-05-03T14:17:29.527Z,14.03
2019-05-03T14:20:20.303Z,13.92
2019-05-03T14:22:52.784Z,14.21
2019-05-03T14:25:24.813Z,14.14
2019-05-03T14:27:59.664Z,13.93
2019-05-03T14:30:31.273Z,13.62
2019-05-03T14:33:04.916Z,13.62
2019-05-03T14:35:37.159Z,13.57
2019-05-03T14:38:08.961Z,13.68
2019-05-03T14:40:40.750Z,13.83
2019-05-03T14:43:12.612Z,13.85
2019-05-03T14:45:44.462Z,13.83
2019-05-03T14:48:16.352Z,13.99
2019-05-03T14:50:48.206Z,14.10
2019-05-03T14:53:20.077Z,14.41
2019-05-03T14:55:57.795Z,14.39
2019-05-03T14:58:48.162Z,14.44
2019-05-03T15:01:30.003Z,14.62
2019-05-03T15:04:01.854Z,14.49
2019-05-03T15:06:35.410Z,13.87
2019-05-03T15:09:08.048Z,13.64
2019-05-03T15:11:40.118Z,13.35
2019-05-03T15:14:11.977Z,13.36
2019-05-03T15:16:45.033Z,13.31
2019-05-03T15:19:17.042Z,14.12
2019-05-03T15:21:48.920Z,14.57
2019-05-03T15:24:20.767Z,14.55
2019-05-03T15:26:52.620Z,14.45
2019-05-03T15:29:25.491Z,14.29
2019-05-03T15:31:57.370Z,14.05
2019-05-03T15:34:29.231Z,13.68
2019-05-03T15:37:01.031Z,13.52
2019-05-03T15:39:32.903Z,13.76
2019-05-03T15:42:05.415Z,13.99
2019-05-03T15:44:59.096Z,13.83
2019-05-03T15:47:41.724Z,13.60
2019-05-03T15:50:15.467Z,13.66
2019-05-03T15:52:48.814Z,13.49
2019-05-03T15:55:20.679Z,13.28
2019-05-03T15:57:52.535Z,13.12
2019-05-03T16:00:24.530Z,13.95
2019-05-03T16:03:07.462Z,14.73
2019-05-03T16:05:29.989Z,14.80
2019-05-03T16:08:01.864Z,14.43
2019-05-03T16:10:33.849Z,13.84
2019-05-03T16:13:05.882Z,13.73
2019-05-03T16:15:37.775Z,13.93
2019-05-03T16:18:09.649Z,13.60
2019-05-03T16:20:41.505Z,13.39
2019-05-03T16:23:15.260Z,13.29
2019-05-03T16:25:46.864Z,12.99
2019-05-03T16:28:34.375Z,12.91
2019-05-03T16:31:09.291Z,12.87
2019-05-03T16:33:41.179Z,12.53
2019-05-03T16:36:14.751Z,12.53
2019-05-03T16:38:46.717Z,12.50
2019-05-03T16:41:18.577Z,12.57
2019-05-03T16:43:50.444Z,12.35
2019-05-03T16:46:22.330Z,12.34
2019-05-03T16:48:54.200Z,12.20
2019-05-03T16:51:26.471Z,12.03
2019-05-03T16:53:58.350Z,12.05
2019-05-03T16:56:30.239Z,12.07
2019-05-03T16:59:02.346Z,12.01
2019-05-03T17:01:35.187Z,12.03
2019-05-03T17:04:34.546Z,11.88
2019-05-03T17:07:24.662Z,11.80
2019-05-03T17:10:00.876Z,11.85
2019-05-03T17:12:34.798Z,11.89
2019-05-03T17:15:07.458Z,11.80
2019-05-03T17:17:39.347Z,11.78
2019-05-03T17:20:11.349Z,11.81
2019-05-03T17:22:45.011Z,11.79
2019-05-03T17:25:17.005Z,11.78
2019-05-03T17:27:48.858Z,11.83
2019-05-03T17:30:20.878Z,11.69
2019-05-03T17:32:52.804Z,11.65
2019-05-03T17:35:25.174Z,11.69
2019-05-03T17:37:57.167Z,11.60
2019-05-03T17:40:40.590Z,11.58
2019-05-03T17:43:18.258Z,11.58
2019-05-03T17:45:52.610Z,11.51
2019-05-03T17:48:24.512Z,11.49
2019-05-03T17:50:56.371Z,11.45
2019-05-03T17:53:47.172Z,11.35
2019-05-03T17:56:36.610Z,11.32
2019-05-03T17:59:12.443Z,11.40
2019-05-03T18:02:04.215Z,11.29
2019-05-03T18:04:44.275Z,11.29
2019-05-03T18:07:24.346Z,11.28
2019-05-03T18:09:57.805Z,11.25
2019-05-03T18:12:31.014Z,11.27
2019-05-03T18:15:02.873Z,11.26
2019-05-03T18:17:35.228Z,11.23
2019-05-03T18:20:07.346Z,11.16
2019-05-03T18:22:39.248Z,11.11
2019-05-03T18:25:11.165Z,11.05
2019-05-03T18:27:44.612Z,11.02
2019-05-03T18:30:16.707Z,10.97
2019-05-03T18:32:48.570Z,10.99
2019-05-03T18:35:20.375Z,10.96
2019-05-03T18:37:58.791Z,10.88
2019-05-03T18:40:32.855Z,10.81
2019-05-03T18:43:09.817Z,10.75
2019-05-03T18:46:18.510Z,10.78
2019-05-03T18:48:50.734Z,10.69
2019-05-03T18:51:22.614Z,10.74
2019-05-03T18:53:54.596Z,10.68
2019-05-03T18:56:26.444Z,10.66
2019-05-03T18:58:58.335Z,10.61
2019-05-03T19:01:30.198Z,10.56
2019-05-03T19:04:10.999Z,10.64
2019-05-03T19:06:42.870Z,10.62
2019-05-03T19:09:27.266Z,10.62
2019-05-03T19:12:06.616Z,10.58
2019-05-03T19:14:38.981Z,10.64
2019-05-03T19:17:28.083Z,10.68
2019-05-03T19:20:00.226Z,10.63
2019-05-03T19:22:34.312Z,10.59
2019-05-03T19:25:06.133Z,10.60
2019-05-03T19:27:38.047Z,10.59
2019-05-03T19:30:11.459Z,10.57
2019-05-03T19:32:45.037Z,10.57
2019-05-03T19:35:17.107Z,10.53
2019-05-03T19:37:48.979Z,10.57
2019-05-03T19:40:20.868Z,10.59
2019-05-03T19:42:52.726Z,10.65
2019-05-03T19:45:24.934Z,10.62
2019-05-03T19:47:56.863Z,10.53
2019-05-03T19:50:28.730Z,10.51
2019-05-03T19:53:15.972Z,10.43
2019-05-03T19:55:50.559Z,10.41
2019-05-03T19:58:21.451Z,10.39
2019-05-03T20:01:12.229Z,10.34
2019-05-03T20:03:50.888Z,10.35
2019-05-03T20:06:37.887Z,10.25
2019-05-03T20:09:15.152Z,10.16
2019-05-03T20:11:47.109Z,10.14
2019-05-03T20:14:18.969Z,10.02
2019-05-03T20:16:50.784Z,10.00
2019-05-03T20:19:22.693Z,10.01
2019-05-03T20:21:56.759Z,9.93
2019-05-03T20:24:28.078Z,9.81
2019-05-03T20:26:59.888Z,9.81
2019-05-03T20:29:31.757Z,9.82
2019-05-03T20:32:05.802Z,9.77
2019-05-03T20:34:37.437Z,9.75
2019-05-03T20:37:09.319Z,9.65
2019-05-03T20:39:41.109Z,9.65
2019-05-03T20:42:15.518Z,9.57
2019-05-03T20:44:59.853Z,9.61
2019-05-03T20:47:35.143Z,9.65
2019-05-03T20:50:16.737Z,9.60
2019-05-03T20:52:48.548Z,9.60
2019-05-03T20:55:20.439Z,9.55
2019-05-03T20:57:52.309Z,9.45
2019-05-03T21:00:25.734Z,9.22
2019-05-03T21:02:58.969Z,9.11
2019-05-03T21:05:34.479Z,8.98
2019-05-03T21:08:05.605Z,9.00
2019-05-03T21:10:37.585Z,8.99
2019-05-03T21:13:09.446Z,8.77
2019-05-03T21:15:47.547Z,8.78
2019-05-03T21:18:36.432Z,8.77
2019-05-03T21:21:21.899Z,8.72
2019-05-03T21:23:57.273Z,8.73
2019-05-03T21:26:29.069Z,8.73
2019-05-03T21:29:00.916Z,8.62
2019-05-03T21:31:32.799Z,8.63
2019-05-03T21:34:05.665Z,8.68
2019-05-03T21:36:38.597Z,8.62
2019-05-03T21:39:10.460Z,8.61
2019-05-03T21:41:42.312Z,8.62
2019-05-03T21:44:30.803Z,8.63
2019-05-03T21:47:15.274Z,8.65
2019-05-03T21:49:47.154Z,8.72
2019-05-03T21:52:19.077Z,8.67
2019-05-03T21:54:50.938Z,8.60
2019-05-03T21:57:25.154Z,8.53
2019-05-03T21:59:56.383Z,8.52
2019-05-03T22:02:28.200Z,8.49
2019-05-03T22:05:00.065Z,8.43
2019-05-03T22:07:31.941Z,8.43
2019-05-03T22:10:05.005Z,8.49
2019-05-03T22:12:37.029Z,8.54
2019-05-03T22:15:16.175Z,8.51
2019-05-03T22:18:04.707Z,8.57
2019-05-03T22:20:55.018Z,8.59
2019-05-03T22:24:04.490Z,8.64
2019-05-03T22:27:00.158Z,8.66
2019-05-03T22:29:32.201Z,8.64
2019-05-03T22:32:05.307Z,8.68
2019-05-03T22:34:37.325Z,8.66
2019-05-03T22:37:09.178Z,8.63
2019-05-03T22:39:41.030Z,8.62
2019-05-03T22:42:14.716Z,8.61
2019-05-03T22:44:46.391Z,8.49
2019-05-03T22:47:18.263Z,8.38
2019-05-03T22:49:50.121Z,8.40
2019-05-03T22:52:21.995Z,8.34
2019-05-03T22:54:55.496Z,8.31
2019-05-03T22:57:27.640Z,8.25
2019-05-03T22:59:59.487Z,8.23
2019-05-03T23:02:31.340Z,8.22
2019-05-03T23:05:04.676Z,8.28
2019-05-03T23:07:37.491Z,8.25
2019-05-03T23:10:10.509Z,8.15
2019-05-03T23:12:42.379Z,8.10
2019-05-03T23:15:15.082Z,8.05
2019-05-03T23:17:46.977Z,8.02
2019-05-03T23:20:30.787Z,8.05
2019-05-03T23:23:02.841Z,8.12
2019-05-03T23:25:35.635Z,8.16
2019-05-03T23:28:07.566Z,8.25
2019-05-03T23:30:39.419Z,8.23
2019-05-03T23:33:11.351Z,8.23
2019-05-03T23:35:44.379Z,8.15
2019-05-03T23:38:16.667Z,8.15
2019-05-03T23:40:48.535Z,8.18
2019-05-03T23:43:20.350Z,8.13
2019-05-03T23:45:52.219Z,8.11
2019-05-03T23:48:25.349Z,8.11
2019-05-03T23:50:57.196Z,8.12
2019-05-03T23:53:29.072Z,8.07
2019-05-03T23:56:10.604Z,8.02
2019-05-03T23:58:44.553Z,7.96
